Time;durP1;ratioP1;P1;durP2;ratioP2;P2;SDS_P1;SDS_P2;PMS_P1;PMS_P2;Temp;Humidity;BMP_temperature;BMP_pressure;BME280_temperature;BME280_humidity;BME280_pressure;Samples;Min_cycle;Max_cycle;Signal;HPM_P1;HPM_P2
2023/06/26 00:00:25;;;;;;;5.23;4.90;;;;;;;22.58;75.04;100660.78;5014296;28;20211;-79
2023/06/26 00:02:51;;;;;;;5.40;5.00;;;;;;;22.56;74.50;100664.50;5028283;28;20215;-81
2023/06/26 00:05:18;;;;;;;6.07;5.50;;;;;;;22.47;75.22;100654.47;5033263;28;20236;-80
2023/06/26 00:07:44;;;;;;;5.67;5.17;;;;;;;22.41;74.59;100653.91;5033802;28;20677;-82
2023/06/26 00:10:10;;;;;;;4.97;4.67;;;;;;;22.38;74.42;100666.56;5033693;28;20285;-80
2023/06/26 00:12:38;;;;;;;5.40;4.97;;;;;;;22.34;74.00;100681.03;5034112;28;20202;-82
2023/06/26 00:15:05;;;;;;;5.53;4.93;;;;;;;22.29;73.88;100688.44;5032734;28;20202;-80
2023/06/26 00:17:37;;;;;;;5.10;4.70;;;;;;;22.29;74.41;100661.84;5033544;28;20260;-80
2023/06/26 00:20:05;;;;;;;4.60;4.30;;;;;;;22.25;73.41;100682.44;5035207;28;20313;-82
2023/06/26 00:22:31;;;;;;;4.90;4.60;;;;;;;22.27;72.98;100696.50;5037128;28;20301;-80
2023/06/26 00:24:57;;;;;;;5.60;5.10;;;;;;;22.30;73.83;100676.81;5029150;28;20215;-82
2023/06/26 00:27:24;;;;;;;4.77;4.43;;;;;;;22.24;72.05;100711.75;5018997;28;20219;-81
2023/06/26 00:29:52;;;;;;;6.13;4.63;;;;;;;22.21;71.44;100737.59;5036490;28;20233;-82
2023/06/26 00:32:19;;;;;;;4.83;4.53;;;;;;;22.23;71.87;100768.56;5035962;28;20233;-83
2023/06/26 00:34:46;;;;;;;5.20;4.70;;;;;;;22.22;69.50;100778.34;5035822;28;20229;-80
2023/06/26 00:37:13;;;;;;;5.13;4.73;;;;;;;22.30;70.36;100812.47;5036130;28;20669;-80
2023/06/26 00:39:40;;;;;;;4.73;4.30;;;;;;;22.32;71.35;100771.53;5035898;28;20253;-80
2023/06/26 00:42:07;;;;;;;4.90;4.60;;;;;;;22.31;70.51;100768.97;5035410;28;20238;-82
2023/06/26 00:44:33;;;;;;;4.77;4.47;;;;;;;22.30;67.86;100802.69;5027849;28;20207;-80
2023/06/26 00:47:01;;;;;;;4.87;4.47;;;;;;;22.35;68.94;100823.69;5018732;28;20210;-82
2023/06/26 00:49:28;;;;;;;4.80;4.50;;;;;;;22.40;69.31;100829.59;5033237;28;20275;-80
2023/06/26 00:51:56;;;;;;;4.83;4.53;;;;;;;22.29;69.14;100813.44;5033918;28;20650;-80
2023/06/26 00:54:22;;;;;;;4.97;4.67;;;;;;;22.30;70.19;100781.44;5032509;28;20230;-79
2023/06/26 00:56:49;;;;;;;7.03;4.73;;;;;;;22.32;69.21;100784.84;5032129;28;20233;-80
2023/06/26 00:59:15;;;;;;;4.80;4.40;;;;;;;22.28;69.39;100793.09;5032365;28;20284;-81
2023/06/26 01:01:42;;;;;;;5.50;5.10;;;;;;;22.21;70.13;100781.97;5032857;28;20271;-80
2023/06/26 01:04:17;;;;;;;5.03;4.63;;;;;;;22.21;69.58;100779.28;5033193;28;20276;-81
2023/06/26 01:06:48;;;;;;;4.50;4.10;;;;;;;22.21;71.51;100728.78;5034844;28;20714;-80
2023/06/26 01:09:16;;;;;;;6.33;4.80;;;;;;;22.18;72.20;100687.28;5032526;28;20285;-80
2023/06/26 01:11:42;;;;;;;5.03;4.63;;;;;;;22.19;72.52;100664.19;5032172;28;20283;-81
2023/06/26 01:14:09;;;;;;;5.33;4.83;;;;;;;22.13;72.73;100660.13;5034624;28;20202;-82
2023/06/26 01:16:36;;;;;;;4.97;4.57;;;;;;;22.11;74.28;100618.63;5021741;28;20265;-80
2023/06/26 01:19:08;;;;;;;4.50;4.20;;;;;;;22.11;74.11;100608.00;5019341;28;20226;-80
2023/06/26 01:21:39;;;;;;;5.53;5.13;;;;;;;22.02;74.87;100580.19;5032325;28;20602;-80
2023/06/26 01:24:10;;;;;;;5.37;4.93;;;;;;;22.05;75.35;100568.53;5032497;28;20265;-80
2023/06/26 01:26:41;;;;;;;4.83;4.43;;;;;;;22.03;75.48;100563.31;5031921;28;20198;-80
2023/06/26 01:29:11;;;;;;;5.30;4.93;;;;;;;22.00;76.08;100545.75;5032116;28;20206;-80
2023/06/26 01:31:38;;;;;;;4.57;4.27;;;;;;;22.00;75.91;100551.06;5032582;28;20221;-80
2023/06/26 01:34:05;;;;;;;5.33;4.63;;;;;;;21.94;76.43;100537.31;5031718;28;20214;-80
2023/06/26 01:36:32;;;;;;;5.47;4.97;;;;;;;21.91;76.92;100517.09;5031669;28;20207;-80
2023/06/26 01:38:58;;;;;;;6.03;4.80;;;;;;;21.91;76.25;100532.22;5032090;28;20611;-80
2023/06/26 01:41:25;;;;;;;4.60;4.30;;;;;;;21.89;76.34;100529.63;5031707;28;20230;-80
2023/06/26 01:44:08;;;;;;;4.30;4.00;;;;;;;21.83;76.23;100521.22;5037338;28;20209;-80
2023/06/26 01:46:39;;;;;;;5.50;5.10;;;;;;;21.81;76.53;100526.63;5021120;28;20576;-81
2023/06/26 01:49:12;;;;;;;4.37;4.17;;;;;;;21.73;76.09;100528.94;5019873;28;20202;-81
2023/06/26 01:51:43;;;;;;;5.27;4.87;;;;;;;21.66;76.88;100514.31;5031947;28;20222;-81
2023/06/26 01:54:14;;;;;;;4.60;4.30;;;;;;;21.63;76.24;100520.69;5032447;28;20626;-80
2023/06/26 01:56:42;;;;;;;4.90;4.60;;;;;;;21.64;76.99;100518.88;5032157;28;20261;-82
2023/06/26 01:59:13;;;;;;;4.67;4.07;;;;;;;21.61;77.79;100483.59;5032733;28;20252;-82
2023/06/26 02:01:40;;;;;;;4.30;4.00;;;;;;;21.59;76.82;100498.78;5028816;28;20226;-82
2023/06/26 02:04:06;;;;;;;4.77;4.40;;;;;;;21.56;77.65;100485.69;5035835;28;20202;-82
2023/06/26 02:06:33;;;;;;;4.83;4.47;;;;;;;21.56;77.48;100477.72;5034527;28;20738;-81
2023/06/26 02:08:59;;;;;;;4.67;4.27;;;;;;;21.54;76.71;100503.53;5035201;28;20624;-82
2023/06/26 02:11:25;;;;;;;5.03;4.63;;;;;;;21.58;75.32;100518.31;5035504;28;20237;-82
2023/06/26 02:13:52;;;;;;;4.23;3.83;;;;;;;21.55;76.49;100517.69;5035009;28;20252;-79
2023/06/26 02:16:20;;;;;;;4.93;4.63;;;;;;;21.53;75.91;100515.13;5026865;28;20281;-82
2023/06/26 02:18:46;;;;;;;4.67;4.27;;;;;;;21.52;75.57;100515.19;5027429;28;20230;-80
2023/06/26 02:21:14;;;;;;;4.80;4.40;;;;;;;21.53;74.62;100568.25;5031239;28;20701;-80
2023/06/26 02:23:40;;;;;;;4.40;4.10;;;;;;;21.54;76.68;100510.66;5031781;28;20606;-81
2023/06/26 02:26:07;;;;;;;4.50;4.20;;;;;;;21.57;76.48;100505.16;5033612;28;20206;-81
2023/06/26 02:28:34;;;;;;;4.47;4.17;;;;;;;21.51;76.52;100509.03;5034965;28;20206;-80
2023/06/26 02:31:01;;;;;;;5.07;4.73;;;;;;;21.49;76.54;100505.63;5035355;28;20317;-80
2023/06/26 02:33:28;;;;;;;5.03;4.63;;;;;;;21.47;76.82;100515.50;5035206;28;20225;-80
2023/06/26 02:35:55;;;;;;;4.60;4.30;;;;;;;21.44;77.43;100483.81;5034253;28;20739;-80
2023/06/26 02:38:21;;;;;;;4.50;4.17;;;;;;;21.34;77.85;100464.06;5035208;28;20550;-80
2023/06/26 02:40:48;;;;;;;5.00;4.60;;;;;;;21.34;78.24;100448.16;5034723;28;20264;-80
2023/06/26 02:43:14;;;;;;;4.87;4.47;;;;;;;21.28;78.00;100449.38;5035069;28;20210;-81
2023/06/26 02:45:40;;;;;;;4.50;4.20;;;;;;;21.29;76.88;100480.31;5034900;28;20202;-80
2023/06/26 02:48:07;;;;;;;4.77;4.47;;;;;;;21.31;78.38;100443.91;5019397;28;20214;-80
2023/06/26 02:50:34;;;;;;;5.10;4.80;;;;;;;21.30;77.70;100444.81;5033708;28;20287;-79
2023/06/26 02:53:01;;;;;;;5.23;4.93;;;;;;;21.28;77.90;100437.91;5034953;28;20207;-81
2023/06/26 02:55:28;;;;;;;5.03;4.60;;;;;;;21.26;76.95;100451.28;5034169;28;20212;-80
2023/06/26 02:57:54;;;;;;;5.40;5.00;;;;;;;21.23;77.36;100462.97;5037108;28;20214;-82
2023/06/26 03:00:20;;;;;;;5.97;4.70;;;;;;;21.23;76.91;100472.75;5034564;28;20291;-80
2023/06/26 03:02:47;;;;;;;4.93;4.53;;;;;;;21.20;77.63;100460.50;5034958;28;20213;-79
2023/06/26 03:05:14;;;;;;;5.57;5.17;;;;;;;21.14;77.88;100442.28;5033748;28;20209;-80
2023/06/26 03:07:41;;;;;;;4.90;4.60;;;;;;;21.09;77.03;100447.06;5026838;28;20585;-80
2023/06/26 03:10:08;;;;;;;5.13;4.73;;;;;;;21.09;75.91;100488.66;5034771;28;20198;-80
2023/06/26 03:12:35;;;;;;;4.73;4.30;;;;;;;21.08;77.14;100471.88;5036190;28;20232;-80
2023/06/26 03:15:01;;;;;;;5.13;4.63;;;;;;;21.01;77.14;100458.16;5036187;28;20206;-80
2023/06/26 03:17:27;;;;;;;5.47;5.07;;;;;;;20.95;77.11;100477.13;5017206;28;20738;-80
2023/06/26 03:19:54;;;;;;;5.37;4.83;;;;;;;20.93;78.00;100439.19;5027408;28;20222;-80
2023/06/26 03:22:20;;;;;;;4.73;4.27;;;;;;;20.92;76.92;100439.28;5034254;28;20230;-80
2023/06/26 03:24:48;;;;;;;5.27;4.90;;;;;;;20.92;77.38;100457.88;5033918;28;20742;-80
2023/06/26 03:27:14;;;;;;;4.93;4.50;;;;;;;20.98;76.31;100470.75;5034002;28;20632;-79
2023/06/26 03:29:40;;;;;;;5.03;4.63;;;;;;;20.98;77.97;100434.44;5034217;28;20210;-80
2023/06/26 03:32:08;;;;;;;4.33;4.03;;;;;;;21.00;77.82;100434.34;5034365;28;20230;-80
2023/06/26 03:34:34;;;;;;;4.97;4.53;;;;;;;21.01;75.31;100481.19;5033320;28;20214;-80
2023/06/26 03:37:01;;;;;;;5.70;5.30;;;;;;;21.09;76.80;100478.03;5040145;28;20214;-80
2023/06/26 03:39:28;;;;;;;4.80;4.47;;;;;;;21.10;76.15;100463.81;5035603;28;20231;-80
2023/06/26 03:42:00;;;;;;;5.20;4.80;;;;;;;21.10;76.84;100456.72;5033793;28;20234;-80
2023/06/26 03:44:26;;;;;;;4.93;4.63;;;;;;;21.12;73.00;100520.34;5033185;28;20575;-80
2023/06/26 03:46:53;;;;;;;4.60;4.20;;;;;;;21.16;75.59;100524.50;5020843;28;20210;-80
2023/06/26 03:49:19;;;;;;;4.67;4.37;;;;;;;21.22;71.77;100591.34;5022630;28;20661;-80
2023/06/26 03:51:46;;;;;;;6.10;4.60;;;;;;;21.32;71.94;100599.59;5034243;28;20222;-80
2023/06/26 03:54:12;;;;;;;5.57;5.03;;;;;;;21.41;73.11;100603.50;5034116;28;20268;-80
2023/06/26 03:56:38;;;;;;;5.10;4.70;;;;;;;21.42;74.34;100552.94;5032859;28;20669;-81
2023/06/26 03:59:06;;;;;;;5.40;5.00;;;;;;;21.45;72.11;100604.19;5025277;28;20261;-81
2023/06/26 04:01:32;;;;;;;5.30;4.90;;;;;;;21.43;72.45;100580.41;5015842;28;20225;-82
2023/06/26 04:04:00;;;;;;;5.20;4.90;;;;;;;21.47;69.61;100655.44;5032700;28;20419;-78
2023/06/26 04:06:27;;;;;;;4.90;4.60;;;;;;;21.56;71.66;100636.25;5033102;28;20264;-80
2023/06/26 04:08:53;;;;;;;4.33;4.07;;;;;;;21.61;71.58;100640.34;5033854;28;20305;-81
2023/06/26 04:11:20;;;;;;;4.50;4.10;;;;;;;21.67;73.14;100577.16;5030340;28;20727;-80
2023/06/26 04:13:46;;;;;;;5.47;5.07;;;;;;;21.70;70.76;100624.78;5013985;28;20257;-80
2023/06/26 04:16:14;;;;;;;4.37;4.07;;;;;;;21.76;71.30;100627.03;5028713;28;20202;-80
2023/06/26 04:18:40;;;;;;;4.90;4.50;;;;;;;21.79;72.53;100606.44;5033692;28;20229;-80
2023/06/26 04:21:08;;;;;;;4.80;4.40;;;;;;;21.80;70.73;100597.53;5034473;28;20282;-80
2023/06/26 04:23:35;;;;;;;4.87;4.50;;;;;;;21.84;69.72;100669.94;5035373;28;20279;-82
2023/06/26 04:26:02;;;;;;;4.77;4.47;;;;;;;21.94;69.78;100671.09;5037246;28;20268;-80
2023/06/26 04:28:29;;;;;;;4.97;4.60;;;;;;;21.99;69.73;100662.81;5039831;28;20296;-79
2023/06/26 04:30:55;;;;;;;5.40;5.00;;;;;;;21.98;68.53;100659.31;5014775;28;20230;-80
2023/06/26 04:33:23;;;;;;;5.20;4.83;;;;;;;22.05;69.91;100665.06;5033584;28;20672;-79
2023/06/26 04:35:49;;;;;;;5.47;4.97;;;;;;;22.07;70.82;100622.44;5034541;28;20277;-81
2023/06/26 04:38:16;;;;;;;5.00;4.67;;;;;;;22.08;70.84;100593.13;5036979;28;20210;-81
2023/06/26 04:40:42;;;;;;;5.07;4.67;;;;;;;22.06;68.20;100631.34;5035789;28;20601;-81
2023/06/26 04:43:09;;;;;;;5.43;5.00;;;;;;;22.15;70.88;100621.00;5035329;28;20264;-80
2023/06/26 04:45:35;;;;;;;5.37;4.93;;;;;;;22.20;70.82;100588.81;5036557;28;20229;-80
2023/06/26 04:48:02;;;;;;;5.63;5.23;;;;;;;22.25;72.67;100528.19;5035224;28;20206;-78
2023/06/26 04:50:31;;;;;;;4.83;4.53;;;;;;;22.28;75.16;100484.59;5033665;28;20256;-79
2023/06/26 04:52:58;;;;;;;4.73;4.43;;;;;;;22.27;76.78;100422.59;5033566;28;20217;-78
2023/06/26 04:55:25;;;;;;;5.23;4.93;;;;;;;22.27;73.85;100451.00;5032930;28;20206;-79
2023/06/26 04:57:52;;;;;;;5.10;4.80;;;;;;;22.20;74.66;100443.41;5034045;28;20210;-80
2023/06/26 05:00:19;;;;;;;5.10;4.80;;;;;;;22.24;74.51;100440.50;5016232;28;20712;-79
2023/06/26 05:02:45;;;;;;;5.43;5.00;;;;;;;22.27;74.14;100467.78;5025597;28;20574;-79
2023/06/26 05:05:12;;;;;;;5.40;5.10;;;;;;;22.27;72.12;100494.38;5032194;28;20276;-81
2023/06/26 05:07:41;;;;;;;4.63;4.33;;;;;;;22.33;74.00;100501.09;5036315;28;20272;-79
2023/06/26 05:10:09;;;;;;;5.23;4.83;;;;;;;22.38;74.04;100459.94;5033064;28;20205;-79
2023/06/26 05:12:35;;;;;;;6.20;4.97;;;;;;;22.40;73.88;100463.34;5033192;28;20209;-78
2023/06/26 05:15:02;;;;;;;5.17;4.83;;;;;;;22.43;73.10;100480.91;5032599;28;20263;-79
2023/06/26 05:17:29;;;;;;;5.73;5.33;;;;;;;22.41;75.00;100512.06;5033677;28;20202;-78
2023/06/26 05:19:55;;;;;;;5.40;5.03;;;;;;;22.37;75.77;100433.44;5033325;28;20222;-78
2023/06/26 05:22:22;;;;;;;5.23;4.83;;;;;;;22.31;75.03;100522.47;5034162;28;20226;-77
2023/06/26 05:24:55;;;;;;;5.53;5.13;;;;;;;22.38;72.46;100480.38;5033022;28;20229;-78
2023/06/26 05:27:22;;;;;;;5.13;4.83;;;;;;;22.40;71.06;100516.56;5033885;28;20233;-79
2023/06/26 05:29:49;;;;;;;7.30;5.30;;;;;;;22.46;72.08;100525.94;5021707;28;20226;-77
2023/06/26 05:32:18;;;;;;;5.43;5.03;;;;;;;22.49;74.40;100488.47;5021917;28;20719;-79
2023/06/26 05:34:47;;;;;;;5.43;5.13;;;;;;;22.49;76.35;100408.66;5031489;28;20208;-80
2023/06/26 05:37:19;;;;;;;5.20;4.73;;;;;;;22.41;75.28;100409.19;5028469;28;20206;-81
2023/06/26 05:39:46;;;;;;;5.27;4.97;;;;;;;22.47;75.77;100399.09;5033971;28;20229;-79
2023/06/26 05:42:15;;;;;;;6.17;5.03;;;;;;;22.48;75.56;100387.50;5032436;28;20731;-79
2023/06/26 05:44:42;;;;;;;5.57;5.17;;;;;;;22.41;77.56;100332.03;5034080;28;20275;-79
2023/06/26 05:47:08;;;;;;;5.40;5.00;;;;;;;22.36;77.49;100326.22;5033278;28;20206;-82
2023/06/26 05:49:35;;;;;;;5.17;4.67;;;;;;;22.37;75.02;100375.78;5032625;28;20225;-81
2023/06/26 05:52:02;;;;;;;5.13;4.63;;;;;;;22.46;72.24;100482.50;5033238;28;20322;-79
2023/06/26 05:54:29;;;;;;;5.37;4.87;;;;;;;22.50;72.14;100479.53;5033230;28;20221;-81
2023/06/26 05:56:59;;;;;;;5.37;5.00;;;;;;;22.55;73.35;100495.19;5031859;28;20232;-81
2023/06/26 05:59:27;;;;;;;5.07;4.77;;;;;;;22.63;73.57;100471.56;5026804;28;20701;-81
2023/06/26 06:01:54;;;;;;;5.10;4.80;;;;;;;22.65;74.41;100469.63;5024221;28;20245;-82
2023/06/26 06:04:20;;;;;;;5.13;4.83;;;;;;;22.62;72.90;100466.34;5038442;28;20216;-79
2023/06/26 06:06:47;;;;;;;5.00;4.70;;;;;;;22.64;75.61;100435.19;5040078;28;20206;-81
2023/06/26 06:09:14;;;;;;;5.77;5.37;;;;;;;22.64;74.70;100420.06;5039730;28;20260;-81
2023/06/26 06:11:40;;;;;;;5.27;4.97;;;;;;;22.66;72.83;100467.84;5038749;28;20221;-81
2023/06/26 06:14:07;;;;;;;5.47;5.10;;;;;;;22.71;76.79;100420.47;5038495;28;20210;-81
2023/06/26 06:16:34;;;;;;;5.07;4.77;;;;;;;22.73;75.48;100384.78;5039438;28;20264;-81
2023/06/26 06:19:03;;;;;;;4.77;4.47;;;;;;;22.82;75.23;100412.59;5043104;28;20237;-80
2023/06/26 06:21:29;;;;;;;5.30;4.90;;;;;;;22.89;73.88;100437.78;5052564;28;20233;-83
2023/06/26 06:23:55;;;;;;;5.63;4.97;;;;;;;22.99;72.46;100508.09;5046474;28;20211;-81
2023/06/26 06:26:22;;;;;;;5.90;5.40;;;;;;;23.17;68.83;100615.16;5044645;28;20222;-80
2023/06/26 06:28:48;;;;;;;5.17;4.77;;;;;;;23.30;66.13;100695.06;5041782;28;20203;-79
2023/06/26 06:31:15;;;;;;;4.97;4.60;;;;;;;23.42;65.45;100751.16;5018165;28;20704;-80
2023/06/26 06:33:43;;;;;;;5.47;5.13;;;;;;;23.52;63.86;100810.84;5035909;28;20203;-79
2023/06/26 06:36:09;;;;;;;5.73;5.23;;;;;;;23.68;61.66;100863.97;5036513;28;20672;-80
2023/06/26 06:38:35;;;;;;;5.53;5.23;;;;;;;23.81;63.43;100866.72;5035944;28;20233;-81
2023/06/26 06:41:02;;;;;;;5.20;4.90;;;;;;;23.92;63.66;100846.31;5036274;28;20288;-80
2023/06/26 06:43:28;;;;;;;5.43;5.03;;;;;;;24.03;64.13;100807.44;5036482;28;20206;-83
2023/06/26 06:45:54;;;;;;;5.00;4.70;;;;;;;24.07;63.60;100817.75;5036597;28;20215;-82
2023/06/26 06:48:21;;;;;;;5.70;5.30;;;;;;;24.09;62.42;100839.84;5038532;28;20264;-80
2023/06/26 06:50:48;;;;;;;5.30;4.90;;;;;;;24.20;61.21;100852.41;5036878;28;20227;-82
2023/06/26 06:53:15;;;;;;;6.03;5.40;;;;;;;24.27;61.79;100980.94;5037273;28;20479;-81
2023/06/26 06:55:41;;;;;;;6.37;5.87;;;;;;;24.33;63.06;100874.63;5036497;28;20228;-81
2023/06/26 06:58:08;;;;;;;6.13;5.63;;;;;;;24.36;63.74;100810.38;5037732;28;20206;-81
2023/06/26 07:00:34;;;;;;;8.00;6.27;;;;;;;24.38;62.86;100831.63;5017407;28;20236;-81
2023/06/26 07:03:01;;;;;;;5.70;5.33;;;;;;;24.36;61.11;100857.53;5029727;28;20257;-79
2023/06/26 07:05:27;;;;;;;5.73;5.33;;;;;;;24.37;62.34;100848.59;5034193;28;20202;-78
2023/06/26 07:07:55;;;;;;;6.03;5.60;;;;;;;24.44;61.68;100833.84;5034442;28;20206;-79
2023/06/26 07:10:21;;;;;;;5.93;5.50;;;;;;;24.51;62.19;100835.16;5033451;28;20207;-78
2023/06/26 07:12:48;;;;;;;6.40;6.00;;;;;;;24.54;61.05;100866.97;5033926;28;20206;-79
2023/06/26 07:15:14;;;;;;;6.57;6.17;;;;;;;24.62;62.36;100850.41;5035714;28;20207;-81
2023/06/26 07:17:40;;;;;;;6.00;5.60;;;;;;;24.67;63.12;100800.19;5036931;28;20248;-78
2023/06/26 07:20:08;;;;;;;6.10;5.70;;;;;;;24.63;62.47;100797.88;5034269;28;20243;-79
2023/06/26 07:22:34;;;;;;;6.30;5.37;;;;;;;24.73;63.54;100778.38;5034396;28;20734;-78
2023/06/26 07:25:02;;;;;;;7.30;6.70;;;;;;;24.71;63.89;100766.97;5033937;28;20474;-79
2023/06/26 07:27:28;;;;;;;6.33;5.83;;;;;;;24.73;62.20;100797.06;5034159;28;20212;-78
2023/06/26 07:29:55;;;;;;;5.90;5.53;;;;;;;24.77;62.37;100787.03;5021003;28;20212;-80
2023/06/26 07:32:21;;;;;;;5.93;5.43;;;;;;;24.81;61.95;100806.34;5024142;28;20244;-81
2023/06/26 07:34:47;;;;;;;5.77;5.47;;;;;;;24.83;60.95;100844.47;5042157;28;20340;-80
2023/06/26 07:37:14;;;;;;;6.27;5.90;;;;;;;24.85;60.00;100875.44;5034767;28;20210;-81
2023/06/26 07:39:40;;;;;;;7.97;6.20;;;;;;;24.89;59.50;100892.09;5034045;28;20231;-80
2023/06/26 07:42:08;;;;;;;6.23;5.83;;;;;;;24.93;60.74;100906.94;5033959;28;20239;-81
2023/06/26 07:44:35;;;;;;;5.80;5.40;;;;;;;24.98;59.78;100883.44;5033837;28;20209;-79
2023/06/26 07:47:01;;;;;;;6.43;6.03;;;;;;;25.03;60.31;100872.41;5033834;28;20236;-78
2023/06/26 07:49:27;;;;;;;6.07;5.63;;;;;;;25.09;61.95;100861.28;5040622;28;20203;-82
2023/06/26 07:51:54;;;;;;;6.63;6.13;;;;;;;25.11;60.60;100868.22;5035105;28;20235;-79
2023/06/26 07:54:20;;;;;;;5.80;5.43;;;;;;;25.17;61.09;100843.72;5042997;28;20245;-78
2023/06/26 07:56:55;;;;;;;7.23;6.73;;;;;;;25.22;62.60;100805.16;5034741;28;20214;-81
2023/06/26 07:59:23;;;;;;;6.33;5.93;;;;;;;25.22;62.24;100816.69;5023592;28;20210;-80
2023/06/26 08:01:51;;;;;;;6.57;6.17;;;;;;;25.23;60.23;100846.94;5018550;28;20235;-81
2023/06/26 08:04:18;;;;;;;6.20;5.67;;;;;;;25.25;60.21;100861.03;5033444;28;20214;-79
2023/06/26 08:06:44;;;;;;;7.07;6.67;;;;;;;25.32;60.98;100847.09;5037203;28;20212;-82
2023/06/26 08:09:12;;;;;;;6.80;6.30;;;;;;;25.28;60.86;100840.28;5039244;28;20264;-83
2023/06/26 08:11:38;;;;;;;6.10;5.70;;;;;;;25.32;61.90;100808.84;5038467;28;20237;-79
2023/06/26 08:14:05;;;;;;;7.13;6.47;;;;;;;25.37;62.11;100779.94;5036382;28;20571;-79
2023/06/26 08:16:32;;;;;;;7.00;6.57;;;;;;;25.36;61.24;100824.53;5037397;28;20209;-82
2023/06/26 08:18:59;;;;;;;7.10;6.47;;;;;;;25.37;60.58;100828.03;5036020;28;20210;-81
2023/06/26 08:21:25;;;;;;;7.13;6.63;;;;;;;25.40;61.03;100841.19;5033217;28;20284;-80
2023/06/26 08:23:52;;;;;;;6.87;6.30;;;;;;;25.40;61.40;100840.34;5034104;28;20264;-81
2023/06/26 08:26:18;;;;;;;6.73;6.33;;;;;;;25.43;61.66;100818.69;5015664;28;20238;-80
2023/06/26 08:28:44;;;;;;;6.57;5.97;;;;;;;25.45;61.87;100785.56;5025477;28;20260;-80
2023/06/26 08:31:10;;;;;;;6.90;6.50;;;;;;;25.47;61.72;100794.31;5033413;28;20222;-81
2023/06/26 08:33:38;;;;;;;6.83;6.33;;;;;;;25.51;61.95;100789.56;5036422;28;20209;-84
2023/06/26 08:36:05;;;;;;;7.20;6.77;;;;;;;25.59;62.98;100754.22;5035993;28;20210;-82
2023/06/26 08:38:31;;;;;;;7.17;6.63;;;;;;;25.58;60.58;100772.09;5036890;28;20213;-82
2023/06/26 08:40:57;;;;;;;7.33;6.80;;;;;;;25.62;60.57;100813.66;5037170;28;20226;-81
2023/06/26 08:43:24;;;;;;;7.30;6.77;;;;;;;25.69;62.29;100766.78;5036993;28;20202;-83
2023/06/26 08:45:51;;;;;;;7.63;7.13;;;;;;;25.74;62.47;100761.06;5037341;28;20207;-82
2023/06/26 08:48:18;;;;;;;7.37;6.87;;;;;;;25.79;61.07;100785.66;5037225;28;20249;-83
2023/06/26 08:50:49;;;;;;;7.83;7.10;;;;;;;25.79;60.52;100788.31;5037357;28;20692;-80
2023/06/26 08:53:29;;;;;;;7.40;6.90;;;;;;;25.75;60.54;100808.25;5037182;28;20211;-83
2023/06/26 08:55:58;;;;;;;7.53;7.03;;;;;;;25.67;60.31;100824.88;5023430;28;20626;-83
2023/06/26 08:58:25;;;;;;;6.80;6.20;;;;;;;25.67;60.74;100838.25;5027094;28;20271;-81
2023/06/26 09:00:51;;;;;;;7.57;6.93;;;;;;;25.81;62.58;100778.34;5036020;28;20230;-83
2023/06/26 09:03:18;;;;;;;7.40;6.90;;;;;;;25.89;60.75;100804.50;5037297;28;20268;-82
2023/06/26 09:05:46;;;;;;;8.00;7.50;;;;;;;25.89;59.96;100841.97;5036494;28;20202;-83
2023/06/26 09:08:13;;;;;;;8.03;7.47;;;;;;;25.84;61.12;100818.22;5037307;28;20209;-82
2023/06/26 09:10:39;;;;;;;7.43;6.73;;;;;;;25.87;61.70;100815.31;5036055;28;20565;-81
2023/06/26 09:13:06;;;;;;;8.00;7.50;;;;;;;25.91;61.97;100790.06;5036433;28;20206;-80
2023/06/26 09:15:39;;;;;;;7.90;7.43;;;;;;;25.93;61.66;100814.03;5037259;28;20201;-79
2023/06/26 09:18:06;;;;;;;7.80;7.30;;;;;;;25.95;61.47;100802.22;5043681;28;20296;-79
2023/06/26 09:20:32;;;;;;;8.10;7.50;;;;;;;26.02;62.20;100797.25;5032132;28;20773;-82
2023/06/26 09:23:01;;;;;;;9.00;8.40;;;;;;;25.83;62.09;100807.66;5033742;28;20209;-81
2023/06/26 09:25:28;;;;;;;9.50;8.60;;;;;;;25.84;61.10;100822.72;5024798;28;20205;-83
2023/06/26 09:27:55;;;;;;;9.23;8.33;;;;;;;25.78;60.91;100840.09;5022527;28;20268;-80
2023/06/26 09:30:21;;;;;;;9.07;8.27;;;;;;;25.73;60.55;100855.66;5044580;28;20204;-81
2023/06/26 09:32:49;;;;;;;9.23;8.43;;;;;;;25.70;59.85;100872.75;5034226;28;20267;-79
2023/06/26 09:35:15;;;;;;;8.77;8.17;;;;;;;25.70;61.77;100815.75;5035691;28;20237;-81
2023/06/26 09:37:42;;;;;;;9.03;8.53;;;;;;;25.73;61.63;100824.41;5037868;28;20205;-82
2023/06/26 09:40:10;;;;;;;8.93;8.20;;;;;;;25.84;62.13;100812.88;5037103;28;20221;-80
2023/06/26 09:42:37;;;;;;;9.47;8.77;;;;;;;25.85;61.64;100811.91;5036754;28;20222;-79
2023/06/26 09:45:03;;;;;;;8.93;8.37;;;;;;;25.99;62.47;100815.38;5036901;28;20639;-82
2023/06/26 09:47:31;;;;;;;9.27;8.37;;;;;;;26.06;62.89;100774.63;5037034;28;20678;-82
2023/06/26 09:49:58;;;;;;;9.77;9.13;;;;;;;26.09;61.43;100824.38;5045075;28;20331;-79
2023/06/26 09:52:27;;;;;;;9.43;8.53;;;;;;;25.95;60.63;100852.22;5037415;28;20226;-78
2023/06/26 09:55:09;;;;;;;8.77;7.90;;;;;;;26.00;62.24;100836.63;5033040;28;20221;-78
2023/06/26 09:57:36;;;;;;;8.67;7.93;;;;;;;26.00;59.98;100860.72;5022109;28;20213;-83
2023/06/26 10:00:04;;;;;;;8.73;8.03;;;;;;;25.63;60.62;100894.72;5038856;28;20206;-80
2023/06/26 10:02:30;;;;;;;10.07;9.23;;;;;;;25.39;63.13;100831.47;5033182;28;20226;-78
2023/06/26 10:04:57;;;;;;;9.33;8.73;;;;;;;25.38;63.28;100781.66;5017318;28;20207;-82
2023/06/26 10:07:23;;;;;;;8.83;8.13;;;;;;;25.23;64.00;100766.75;5035967;28;20740;-80
2023/06/26 10:09:53;;;;;;;7.63;7.13;;;;;;;24.93;62.18;100821.47;5036046;28;20269;-79
2023/06/26 10:12:27;;;;;;;8.30;7.70;;;;;;;24.90;63.40;100824.38;5034776;28;20222;-78
2023/06/26 10:14:54;;;;;;;7.93;7.33;;;;;;;24.70;63.42;100810.66;5035796;28;20212;-79
2023/06/26 10:17:22;;;;;;;9.97;7.47;;;;;;;24.45;65.91;100741.31;5035953;28;20206;-80
2023/06/26 10:19:51;;;;;;;9.23;7.30;;;;;;;24.37;64.96;100749.84;5035697;28;20214;-79
2023/06/26 10:22:21;;;;;;;8.27;7.17;;;;;;;24.34;65.09;100763.41;5036662;28;20234;-81
2023/06/26 10:24:48;;;;;;;7.73;7.00;;;;;;;24.19;67.69;100696.00;5038085;28;20234;-81
2023/06/26 10:27:18;;;;;;;8.50;7.70;;;;;;;24.25;69.05;100630.69;5038841;28;20238;-83
2023/06/26 10:29:49;;;;;;;10.60;9.67;;;;;;;24.36;68.35;100636.06;5037994;28;20260;-82
2023/06/26 10:32:17;;;;;;;13.30;9.93;;;;;;;24.42;68.37;100640.09;5038141;28;20245;-82
2023/06/26 10:34:44;;;;;;;10.77;9.87;;;;;;;24.53;68.58;100632.19;5017186;28;20210;-80
2023/06/26 10:37:13;;;;;;;11.00;10.00;;;;;;;24.53;68.85;100633.03;5033066;28;20233;-83
2023/06/26 10:39:50;;;;;;;11.20;10.47;;;;;;;24.36;69.39;100617.38;5039594;28;20202;-82
2023/06/26 10:42:17;;;;;;;11.50;10.80;;;;;;;24.48;68.89;100610.28;5040532;28;20233;-81
2023/06/26 10:44:44;;;;;;;12.27;11.37;;;;;;;24.54;69.44;100617.91;5038598;28;20238;-80
2023/06/26 10:47:29;;;;;;;10.43;9.73;;;;;;;24.42;70.90;100589.41;5035816;28;20202;-80
2023/06/26 10:49:55;;;;;;;12.63;11.63;;;;;;;24.27;71.09;100576.25;5035489;28;20206;-79
2023/06/26 10:52:22;;;;;;;12.80;11.80;;;;;;;23.94;74.69;100529.78;5035987;28;20222;-79
2023/06/26 10:54:48;;;;;;;14.93;11.00;;;;;;;23.84;76.46;100467.41;5035774;28;20214;-80
2023/06/26 10:57:24;;;;;;;13.23;11.90;;;;;;;23.48;79.88;100370.53;5034217;28;20210;-80
2023/06/26 11:00:10;;;;;;;12.57;11.37;;;;;;;23.34;79.45;100349.41;5035784;28;20206;-79
2023/06/26 11:02:50;;;;;;;11.40;10.43;;;;;;;23.00;81.77;100338.53;5032128;28;20700;-81
2023/06/26 11:05:24;;;;;;;15.30;11.23;;;;;;;22.83;83.82;100283.84;5017620;28;20245;-83
2023/06/26 11:08:05;;;;;;;11.97;10.87;;;;;;;22.72;83.06;100302.44;5031020;28;20210;-80
2023/06/26 11:10:49;;;;;;;11.00;10.10;;;;;;;22.80;84.49;100305.38;5037162;28;20225;-83
2023/06/26 11:13:18;;;;;;;10.43;9.63;;;;;;;22.88;84.41;100311.00;5040332;28;20206;-82
2023/06/26 11:15:44;;;;;;;9.53;8.77;;;;;;;22.93;82.09;100348.78;5037539;28;20248;-80
2023/06/26 11:18:13;;;;;;;10.47;7.87;;;;;;;23.03;79.01;100431.53;5029080;28;20209;-78
2023/06/26 11:20:39;;;;;;;7.07;6.47;;;;;;;23.03;75.38;100537.19;5036649;28;20288;-80
2023/06/26 11:23:08;;;;;;;7.03;6.53;;;;;;;23.07;75.89;100568.84;5035634;28;20229;-79
2023/06/26 11:25:36;;;;;;;7.40;6.67;;;;;;;22.97;77.37;100541.09;5036656;28;20695;-80